Time;durP1;ratioP1;P1;durP2;ratioP2;P2;SDS_P1;SDS_P2;PMS_P1;PMS_P2;Temp;Humidity;BMP_temperature;BMP_pressure;BME280_temperature;BME280_humidity;BME280_pressure;Samples;Min_cycle;Max_cycle;Signal;HPM_P1;HPM_P2
2022/09/18 00:00:09;;;;;;;2.10;1.60;;;;;;;-145.23;100.00;58621.06;5013529;28;20237;-56
2022/09/18 00:02:36;;;;;;;2.33;1.33;;;;;;;-145.23;100.00;58621.06;5003859;28;20628;-56
2022/09/18 00:05:02;;;;;;;1.93;1.70;;;;;;;-145.23;100.00;58621.06;4987044;28;20237;-57
2022/09/18 00:07:29;;;;;;;4.80;1.70;;;;;;;-145.23;100.00;58621.06;4995617;28;20752;-58
2022/09/18 00:09:55;;;;;;;1.70;1.60;;;;;;;-145.23;100.00;58621.06;4997354;28;20905;-55
2022/09/18 00:12:23;;;;;;;1.90;1.80;;;;;;;-145.23;100.00;58621.06;5005774;28;20233;-56
2022/09/18 00:14:50;;;;;;;2.53;1.43;;;;;;;-145.23;100.00;58621.06;5002826;28;20308;-57
2022/09/18 00:17:16;;;;;;;1.40;1.30;;;;;;;-145.23;100.00;58621.06;4996375;28;20230;-56
2022/09/18 00:19:43;;;;;;;1.40;1.30;;;;;;;-145.23;100.00;58621.06;4999351;28;20233;-56
2022/09/18 00:22:09;;;;;;;2.13;1.70;;;;;;;-145.23;100.00;58621.06;5001344;28;20246;-56
2022/09/18 00:24:36;;;;;;;1.73;1.40;;;;;;;-145.23;100.00;58621.06;4989155;28;20241;-56
2022/09/18 00:27:03;;;;;;;1.50;1.40;;;;;;;-145.23;100.00;58621.06;5014411;28;20244;-56
2022/09/18 00:29:30;;;;;;;3.50;1.50;;;;;;;-145.23;100.00;58621.06;5013754;28;20742;-56
2022/09/18 00:31:58;;;;;;;2.43;1.50;;;;;;;-145.23;100.00;58621.06;4999052;28;20244;-56
2022/09/18 00:34:25;;;;;;;1.77;1.67;;;;;;;-145.23;100.00;58621.06;5005996;28;20234;-56
2022/09/18 00:36:51;;;;;;;1.60;1.50;;;;;;;-145.23;100.00;58621.06;5000941;28;20249;-56
2022/09/18 00:39:18;;;;;;;1.43;1.33;;;;;;;-145.23;100.00;58621.06;5007544;28;20233;-56
2022/09/18 00:41:44;;;;;;;1.73;1.30;;;;;;;-145.23;100.00;58621.06;5011145;28;20244;-55
2022/09/18 00:44:33;;;;;;;1.63;1.53;;;;;;;-145.23;100.00;58621.06;5001750;28;20642;-56
2022/09/18 00:47:18;;;;;;;1.23;1.20;;;;;;;-145.23;100.00;58621.06;5005863;28;20233;-55
2022/09/18 00:49:47;;;;;;;1.20;1.10;;;;;;;-145.23;100.00;58621.06;5009102;28;20239;-54
2022/09/18 00:52:15;;;;;;;1.33;1.23;;;;;;;-145.23;100.00;58621.06;5000290;28;20646;-54
2022/09/18 00:54:45;;;;;;;1.70;1.00;;;;;;;-145.23;100.00;58621.06;4997412;28;20232;-54
2022/09/18 00:57:13;;;;;;;1.10;1.00;;;;;;;-145.23;100.00;58621.06;5008635;28;20229;-54
2022/09/18 00:59:43;;;;;;;1.50;0.80;;;;;;;-145.23;100.00;58621.06;5006193;28;20977;-54
2022/09/18 01:02:09;;;;;;;0.97;0.93;;;;;;;-145.23;100.00;58621.06;5005095;28;20237;-57
2022/09/18 01:04:36;;;;;;;1.73;0.97;;;;;;;-145.23;100.00;58621.06;5006484;28;20233;-54
2022/09/18 01:07:09;;;;;;;0.80;0.77;;;;;;;-145.23;100.00;58621.06;4994058;28;20241;-54
2022/09/18 01:09:43;;;;;;;3.80;1.30;;;;;;;-145.23;100.00;58621.06;4996336;28;20325;-54
2022/09/18 01:12:15;;;;;;;2.83;1.10;;;;;;;-145.23;100.00;58621.06;5013687;28;20239;-53
2022/09/18 01:14:49;;;;;;;2.93;0.80;;;;;;;-145.23;100.00;58621.06;5006948;28;20256;-54
2022/09/18 01:17:18;;;;;;;1.20;0.93;;;;;;;-145.23;100.00;58621.06;5003849;28;20260;-53
2022/09/18 01:20:16;;;;;;;0.77;0.77;;;;;;;-145.23;100.00;58621.06;4992832;28;20238;-53
2022/09/18 01:22:51;;;;;;;0.77;0.77;;;;;;;-145.23;100.00;58621.06;5003476;28;20238;-55
2022/09/18 01:25:22;;;;;;;1.80;0.87;;;;;;;-145.23;100.00;58621.06;5004374;28;20224;-53
2022/09/18 01:27:59;;;;;;;0.90;0.90;;;;;;;-145.23;100.00;58621.06;4998912;28;20734;-53
2022/09/18 01:30:26;;;;;;;1.10;0.60;;;;;;;-145.23;100.00;58621.06;4993881;28;20228;-52
2022/09/18 01:32:57;;;;;;;0.70;0.70;;;;;;;-145.23;100.00;58621.06;4999913;28;20230;-53
2022/09/18 01:35:27;;;;;;;0.70;0.70;;;;;;;-145.23;100.00;58621.06;4988645;28;20726;-53
2022/09/18 01:37:55;;;;;;;0.50;0.50;;;;;;;-145.23;100.00;58621.06;4992672;28;20241;-53
2022/09/18 01:40:25;;;;;;;0.70;0.70;;;;;;;-145.23;100.00;58621.06;5009650;28;20247;-53
2022/09/18 01:42:56;;;;;;;0.50;0.50;;;;;;;-145.23;100.00;58621.06;5003876;28;20250;-53
2022/09/18 01:45:26;;;;;;;2.93;1.13;;;;;;;-145.23;100.00;58621.06;5005423;28;20240;-53
2022/09/18 01:47:56;;;;;;;0.77;0.60;;;;;;;-145.23;100.00;58621.06;4999845;28;20311;-54
2022/09/18 01:50:24;;;;;;;0.60;0.60;;;;;;;-145.23;100.00;58621.06;4993577;28;20643;-53
2022/09/18 01:52:54;;;;;;;3.80;0.60;;;;;;;-145.23;100.00;58621.06;4989216;28;20234;-53
2022/09/18 01:55:23;;;;;;;1.70;0.90;;;;;;;-145.23;100.00;58621.06;5008611;28;20224;-53
2022/09/18 01:57:53;;;;;;;0.60;0.60;;;;;;;-145.23;100.00;58621.06;4998626;28;20234;-53
2022/09/18 02:00:21;;;;;;;0.50;0.50;;;;;;;-145.23;100.00;58621.06;4990392;28;20797;-54
2022/09/18 02:02:51;;;;;;;0.70;0.70;;;;;;;-145.23;100.00;58621.06;4998593;28;20260;-53
2022/09/18 02:05:23;;;;;;;2.10;0.70;;;;;;;-145.23;100.00;58621.06;5007803;28;20239;-54
2022/09/18 02:07:56;;;;;;;0.70;0.70;;;;;;;-145.23;100.00;58621.06;5003816;28;20248;-53
2022/09/18 02:10:24;;;;;;;0.80;0.80;;;;;;;-145.23;100.00;58621.06;5014369;28;20247;-53
2022/09/18 02:12:52;;;;;;;2.90;0.73;;;;;;;-145.23;100.00;58621.06;4993008;28;20236;-53
2022/09/18 02:15:19;;;;;;;1.40;0.73;;;;;;;-145.23;100.00;58621.06;5003941;28;20232;-53
2022/09/18 02:17:49;;;;;;;1.30;0.93;;;;;;;-145.23;100.00;58621.06;5002810;28;20260;-53
2022/09/18 02:20:19;;;;;;;0.97;0.87;;;;;;;-145.23;100.00;58621.06;4993350;28;20242;-53
2022/09/18 02:22:47;;;;;;;1.87;0.63;;;;;;;-145.23;100.00;58621.06;4999609;28;20233;-53
2022/09/18 02:25:17;;;;;;;0.70;0.70;;;;;;;-145.23;100.00;58621.06;5006198;28;20236;-53
2022/09/18 02:27:44;;;;;;;1.70;0.80;;;;;;;-145.23;100.00;58621.06;4998177;28;20705;-53
2022/09/18 02:30:11;;;;;;;0.83;0.83;;;;;;;-145.23;100.00;58621.06;4995922;28;20240;-54
2022/09/18 02:32:39;;;;;;;1.27;0.97;;;;;;;-145.23;100.00;58621.06;5013873;28;20233;-54
2022/09/18 02:35:09;;;;;;;1.37;1.23;;;;;;;-145.23;100.00;58621.06;4996172;28;20233;-55
2022/09/18 02:37:41;;;;;;;1.10;0.90;;;;;;;-145.23;100.00;58621.06;5005391;28;20229;-55
2022/09/18 02:40:19;;;;;;;1.80;1.40;;;;;;;-145.23;100.00;58621.06;4985161;28;20292;-56
2022/09/18 02:42:52;;;;;;;4.67;1.80;;;;;;;-145.23;100.00;58621.06;4995304;28;20248;-56
2022/09/18 02:45:23;;;;;;;1.80;1.30;;;;;;;-145.23;100.00;58621.06;5001258;28;20234;-55
2022/09/18 02:48:02;;;;;;;6.33;2.30;;;;;;;-145.23;100.00;58621.06;4987486;28;20222;-56
2022/09/18 02:50:34;;;;;;;4.90;2.57;;;;;;;-145.23;100.00;58621.06;5007211;28;20252;-56
2022/09/18 02:53:04;;;;;;;6.73;1.83;;;;;;;-145.23;100.00;58621.06;5003939;28;20336;-57
2022/09/18 02:55:37;;;;;;;4.33;1.30;;;;;;;-145.23;100.00;58621.06;5001351;28;20303;-56
2022/09/18 02:58:05;;;;;;;7.20;2.10;;;;;;;-145.23;100.00;58621.06;4990938;28;20232;-56
2022/09/18 03:00:32;;;;;;;9.10;2.50;;;;;;;-145.23;100.00;58621.06;5000478;28;20247;-58
2022/09/18 03:02:59;;;;;;;6.43;2.23;;;;;;;-145.23;100.00;58621.06;5008897;28;21014;-56
2022/09/18 03:05:25;;;;;;;4.87;1.80;;;;;;;-145.23;100.00;58621.06;5005058;28;20312;-56
2022/09/18 03:07:53;;;;;;;6.93;2.10;;;;;;;-145.23;100.00;58621.06;5007564;28;20237;-56
2022/09/18 03:10:20;;;;;;;7.47;2.73;;;;;;;-145.23;100.00;58621.06;4997204;28;20245;-56
2022/09/18 03:12:47;;;;;;;4.07;1.87;;;;;;;-145.23;100.00;58621.06;5008885;28;20233;-56
2022/09/18 03:15:13;;;;;;;11.67;3.33;;;;;;;-145.23;100.00;58621.06;5004282;28;20228;-55
2022/09/18 03:17:40;;;;;;;7.63;2.50;;;;;;;-145.23;100.00;58621.06;5007150;28;20240;-55
2022/09/18 03:20:07;;;;;;;12.87;2.73;;;;;;;-145.23;100.00;58621.06;5012627;28;20249;-55
2022/09/18 03:22:34;;;;;;;7.80;2.30;;;;;;;-145.23;100.00;58621.06;4988387;28;20335;-56
2022/09/18 03:25:02;;;;;;;5.70;2.13;;;;;;;-145.23;100.00;58621.06;4994402;28;20317;-55
2022/09/18 03:27:28;;;;;;;9.73;2.40;;;;;;;-145.23;100.00;58621.06;4987723;28;20237;-55
2022/09/18 03:29:55;;;;;;;10.30;2.53;;;;;;;-145.23;100.00;58621.06;5011228;28;20244;-55
2022/09/18 03:32:21;;;;;;;5.57;2.83;;;;;;;-145.23;100.00;58621.06;5007420;28;20244;-55
2022/09/18 03:34:48;;;;;;;3.87;2.63;;;;;;;-145.23;100.00;58621.06;4993619;28;20741;-54
2022/09/18 03:37:14;;;;;;;7.10;3.03;;;;;;;-145.23;100.00;58621.06;5007108;28;20257;-54
2022/09/18 03:39:41;;;;;;;8.30;2.30;;;;;;;-145.23;100.00;58621.06;4995896;28;20241;-54
2022/09/18 03:42:09;;;;;;;9.30;2.67;;;;;;;-145.23;100.00;58621.06;5000435;28;20240;-54
2022/09/18 03:44:35;;;;;;;10.10;3.07;;;;;;;-145.23;100.00;58621.06;5019545;28;20229;-54
2022/09/18 03:47:02;;;;;;;5.87;2.27;;;;;;;-145.23;100.00;58621.06;5018810;28;20241;-54
2022/09/18 03:49:28;;;;;;;12.47;2.67;;;;;;;-145.23;100.00;58621.06;5016169;28;20761;-54
2022/09/18 03:51:55;;;;;;;6.53;3.23;;;;;;;-145.23;100.00;58621.06;5006065;28;20244;-53
2022/09/18 03:54:21;;;;;;;7.17;3.10;;;;;;;-145.23;100.00;58621.06;4990003;28;20321;-54
2022/09/18 03:56:48;;;;;;;7.70;4.23;;;;;;;-145.23;100.00;58621.06;4999340;28;20715;-54
2022/09/18 03:59:16;;;;;;;16.07;3.57;;;;;;;-145.23;100.00;58621.06;5008539;28;20320;-53
2022/09/18 04:01:42;;;;;;;8.33;3.53;;;;;;;-145.23;100.00;58621.06;5017174;28;20772;-53
2022/09/18 04:04:09;;;;;;;7.40;3.47;;;;;;;-145.23;100.00;58621.06;5003252;28;20750;-53
2022/09/18 04:06:35;;;;;;;11.53;3.23;;;;;;;-145.23;100.00;58621.06;5006888;28;20229;-53
2022/09/18 04:09:02;;;;;;;6.77;2.87;;;;;;;-145.23;100.00;58621.06;5008320;28;20618;-53
2022/09/18 04:11:29;;;;;;;9.30;3.50;;;;;;;-145.23;100.00;58621.06;5007531;28;20221;-53
2022/09/18 04:13:55;;;;;;;5.90;3.57;;;;;;;-145.23;100.00;58621.06;5005960;28;20279;-53
2022/09/18 04:16:23;;;;;;;13.87;3.60;;;;;;;-145.23;100.00;58621.06;4999062;28;20240;-57
2022/09/18 04:18:50;;;;;;;17.37;3.73;;;;;;;-145.23;100.00;58621.06;5015312;28;20268;-53
2022/09/18 04:21:16;;;;;;;9.83;3.43;;;;;;;-145.23;100.00;58621.06;5002876;28;20233;-53
2022/09/18 04:23:43;;;;;;;16.07;4.53;;;;;;;-145.23;100.00;58621.06;5007907;28;20241;-53
2022/09/18 04:26:09;;;;;;;8.63;4.07;;;;;;;-145.23;100.00;58621.06;4989905;28;20242;-53
2022/09/18 04:28:36;;;;;;;7.23;3.83;;;;;;;-145.23;100.00;58621.06;5003831;28;20723;-53
2022/09/18 04:31:03;;;;;;;10.30;3.77;;;;;;;-145.23;100.00;58621.06;5007818;28;20755;-52
2022/09/18 04:33:31;;;;;;;6.67;3.03;;;;;;;-145.23;100.00;58621.06;4994803;28;21129;-53
2022/09/18 04:35:58;;;;;;;6.20;3.17;;;;;;;-145.23;100.00;58621.06;5014948;28;20294;-53
2022/09/18 04:38:27;;;;;;;13.27;4.30;;;;;;;-145.23;100.00;58621.06;5003032;28;20249;-53
2022/09/18 04:40:54;;;;;;;9.00;4.27;;;;;;;-145.23;100.00;58621.06;5000087;28;20240;-54
2022/09/18 04:43:21;;;;;;;12.10;3.97;;;;;;;-145.23;100.00;58621.06;5020378;28;20279;-53
2022/09/18 04:45:48;;;;;;;6.30;3.60;;;;;;;-145.23;100.00;58621.06;5004572;28;20822;-53
2022/09/18 04:48:15;;;;;;;5.37;4.03;;;;;;;-145.23;100.00;58621.06;5001755;28;20239;-53
2022/09/18 04:50:43;;;;;;;7.67;3.57;;;;;;;-145.23;100.00;58621.06;5016829;28;20239;-53
2022/09/18 04:53:09;;;;;;;8.63;4.27;;;;;;;-145.23;100.00;58621.06;5002787;28;20237;-53
2022/09/18 04:55:36;;;;;;;4.90;2.83;;;;;;;-145.23;100.00;58621.06;5001343;28;20665;-53
2022/09/18 04:58:03;;;;;;;6.73;3.03;;;;;;;-145.23;100.00;58621.06;5002260;28;20596;-53
2022/09/18 05:00:29;;;;;;;8.83;2.67;;;;;;;-145.23;100.00;58621.06;4998918;28;20241;-53
2022/09/18 05:02:56;;;;;;;4.57;2.33;;;;;;;-145.23;100.00;58621.06;4996858;28;20248;-53
2022/09/18 05:05:22;;;;;;;9.20;2.97;;;;;;;-145.23;100.00;58621.06;5007367;28;20650;-53
2022/09/18 05:07:50;;;;;;;11.40;3.43;;;;;;;-145.23;100.00;58621.06;4994038;28;20230;-53
2022/09/18 05:10:16;;;;;;;6.83;2.23;;;;;;;-145.23;100.00;58621.06;4993344;28;20376;-53
2022/09/18 05:12:43;;;;;;;5.43;2.17;;;;;;;-145.23;100.00;58621.06;5006108;28;20719;-53
2022/09/18 05:15:11;;;;;;;5.93;2.73;;;;;;;-145.23;100.00;58621.06;4987022;28;20234;-53
2022/09/18 05:17:39;;;;;;;6.27;2.60;;;;;;;-145.23;100.00;58621.06;5012120;28;20781;-53
2022/09/18 05:20:06;;;;;;;9.30;2.93;;;;;;;-145.23;100.00;58621.06;5005498;28;20261;-53
2022/09/18 05:22:33;;;;;;;7.03;2.43;;;;;;;-145.23;100.00;58621.06;4999905;28;20826;-53
2022/09/18 05:25:00;;;;;;;3.37;2.37;;;;;;;-145.23;100.00;58621.06;5005926;28;20723;-53
2022/09/18 05:27:27;;;;;;;6.27;2.40;;;;;;;-145.23;100.00;58621.06;5005998;28;20666;-54
2022/09/18 05:29:53;;;;;;;9.97;1.90;;;;;;;-145.23;100.00;58621.06;5003676;28;20233;-53
2022/09/18 05:32:20;;;;;;;5.77;1.90;;;;;;;-145.23;100.00;58621.06;5016965;28;20598;-53
2022/09/18 05:34:48;;;;;;;5.70;2.40;;;;;;;-145.23;100.00;58621.06;4996182;28;20228;-53
2022/09/18 05:37:14;;;;;;;9.53;2.43;;;;;;;-145.23;100.00;58621.06;5001035;28;20231;-53
2022/09/18 05:39:41;;;;;;;6.60;1.70;;;;;;;-145.23;100.00;58621.06;5010746;28;20241;-53
2022/09/18 05:42:09;;;;;;;7.53;2.53;;;;;;;-145.23;100.00;58621.06;4995845;28;20316;-53
2022/09/18 05:44:35;;;;;;;7.87;2.73;;;;;;;-145.23;100.00;58621.06;5004953;28;20241;-52
2022/09/18 05:47:02;;;;;;;6.73;2.90;;;;;;;-145.23;100.00;58621.06;4998259;28;20257;-52
2022/09/18 05:49:28;;;;;;;7.70;2.17;;;;;;;-145.23;100.00;58621.06;5021706;28;20247;-53
2022/09/18 05:51:55;;;;;;;6.73;2.23;;;;;;;-145.23;100.00;58621.06;4987308;28;20386;-53
2022/09/18 05:54:22;;;;;;;7.73;1.97;;;;;;;-145.23;100.00;58621.06;4990403;28;20243;-53
2022/09/18 05:56:49;;;;;;;5.60;2.37;;;;;;;-145.23;100.00;58621.06;4991233;28;20977;-53
2022/09/18 05:59:17;;;;;;;5.03;2.30;;;;;;;-145.23;100.00;58621.06;4989113;28;20234;-53
2022/09/18 06:01:43;;;;;;;4.20;1.57;;;;;;;-145.23;100.00;58621.06;4999937;28;20613;-53
2022/09/18 06:04:10;;;;;;;6.87;2.23;;;;;;;-145.23;100.00;58621.06;5018331;28;20240;-53
2022/09/18 06:06:36;;;;;;;8.87;2.37;;;;;;;-145.23;100.00;58621.06;4993296;28;20324;-53
2022/09/18 06:09:03;;;;;;;7.93;2.43;;;;;;;-145.23;100.00;58621.06;4997266;28;20248;-52
2022/09/18 06:11:30;;;;;;;9.17;2.60;;;;;;;-145.23;100.00;58621.06;4996941;28;20248;-52
2022/09/18 06:13:57;;;;;;;7.13;2.13;;;;;;;-145.23;100.00;58621.06;4997484;28;20245;-52
2022/09/18 06:16:24;;;;;;;9.10;1.83;;;;;;;-145.23;100.00;58621.06;5011185;28;20241;-53
2022/09/18 06:18:51;;;;;;;11.83;3.00;;;;;;;-145.23;100.00;58621.06;5022749;28;20595;-52
2022/09/18 06:21:18;;;;;;;7.77;2.27;;;;;;;-145.23;100.00;58621.06;4992917;28;20651;-53
2022/09/18 06:23:44;;;;;;;7.40;2.13;;;;;;;-145.23;100.00;58621.06;4985784;28;20244;-52
2022/09/18 06:26:11;;;;;;;13.60;2.63;;;;;;;-145.23;100.00;58621.06;4992103;28;20313;-52
2022/09/18 06:28:38;;;;;;;6.57;2.27;;;;;;;-145.23;100.00;58621.06;4985123;28;20316;-52
2022/09/18 06:31:04;;;;;;;6.33;2.43;;;;;;;-145.23;100.00;58621.06;4998037;28;20621;-52
2022/09/18 06:33:35;;;;;;;5.17;2.07;;;;;;;-145.23;100.00;58621.06;5009942;28;20236;-52
2022/09/18 06:36:05;;;;;;;6.87;2.27;;;;;;;-145.23;100.00;58621.06;5012490;28;20719;-53
2022/09/18 06:38:32;;;;;;;9.13;1.97;;;;;;;-145.23;100.00;58621.06;4997678;28;20317;-52
2022/09/18 06:40:58;;;;;;;4.43;1.60;;;;;;;-145.23;100.00;58621.06;5004963;28;20292;-52
2022/09/18 06:43:24;;;;;;;4.97;2.60;;;;;;;-145.23;100.00;58621.06;5006897;28;20243;-53
2022/09/18 06:45:52;;;;;;;6.90;2.03;;;;;;;-145.23;100.00;58621.06;5011740;28;20241;-53
2022/09/18 06:48:18;;;;;;;9.60;2.53;;;;;;;-145.23;100.00;58621.06;5016750;28;20237;-53
2022/09/18 06:50:51;;;;;;;12.00;1.90;;;;;;;-145.23;100.00;58621.06;5007708;28;20229;-53
2022/09/18 06:53:17;;;;;;;5.10;2.00;;;;;;;-145.23;100.00;58621.06;5001325;28;20241;-53
2022/09/18 06:55:44;;;;;;;7.73;2.73;;;;;;;-145.23;100.00;58621.06;5008366;28;20287;-53
2022/09/18 06:58:10;;;;;;;7.13;1.73;;;;;;;-145.23;100.00;58621.06;5000501;28;21010;-53
2022/09/18 07:00:36;;;;;;;8.20;2.20;;;;;;;-145.23;100.00;58621.06;5001234;28;20247;-53
2022/09/18 07:03:04;;;;;;;5.17;1.53;;;;;;;-145.23;100.00;58621.06;4996672;28;20233;-53
2022/09/18 07:05:31;;;;;;;7.63;2.17;;;;;;;-145.23;100.00;58621.06;4990066;28;20699;-53
2022/09/18 07:08:00;;;;;;;4.40;2.03;;;;;;;-145.23;100.00;58621.06;4999589;28;20237;-53
2022/09/18 07:10:26;;;;;;;6.70;2.13;;;;;;;-145.23;100.00;58621.06;5004214;28;20233;-53
2022/09/18 07:12:55;;;;;;;9.40;2.60;;;;;;;-145.23;100.00;58621.06;5016812;28;20698;-53
2022/09/18 07:15:22;;;;;;;8.83;1.87;;;;;;;-145.23;100.00;58621.06;5021764;28;20620;-53
2022/09/18 07:17:48;;;;;;;8.23;1.90;;;;;;;-145.23;100.00;58621.06;5010687;28;20663;-53
2022/09/18 07:20:15;;;;;;;3.90;1.70;;;;;;;-145.23;100.00;58621.06;5000526;28;20248;-53
2022/09/18 07:22:42;;;;;;;6.00;1.77;;;;;;;-145.23;100.00;58621.06;4992884;28;20248;-52
2022/09/18 07:25:10;;;;;;;7.27;1.97;;;;;;;-145.23;100.00;58621.06;5004881;28;20723;-53
2022/09/18 07:27:36;;;;;;;5.27;2.10;;;;;;;-145.23;100.00;58621.06;5007130;28;20323;-53
2022/09/18 07:30:04;;;;;;;1.80;1.60;;;;;;;-145.23;100.00;58621.06;5021079;28;20247;-53
2022/09/18 07:32:30;;;;;;;3.63;1.50;;;;;;;-145.23;100.00;58621.06;4990782;28;20848;-54
2022/09/18 07:34:57;;;;;;;7.03;1.90;;;;;;;-145.23;100.00;58621.06;5001837;28;20232;-53
2022/09/18 07:37:23;;;;;;;4.53;1.70;;;;;;;-145.23;100.00;58621.06;4999329;28;20650;-52
2022/09/18 07:39:50;;;;;;;2.80;1.27;;;;;;;-145.23;100.00;58621.06;4992039;28;20261;-53
2022/09/18 07:42:18;;;;;;;4.37;1.70;;;;;;;-145.23;100.00;58621.06;5003131;28;20233;-54
2022/09/18 07:44:44;;;;;;;8.20;1.70;;;;;;;-145.23;100.00;58621.06;5013800;28;20256;-52
2022/09/18 07:47:11;;;;;;;6.03;1.43;;;;;;;-145.23;100.00;58621.06;5000276;28;20754;-53
2022/09/18 07:49:37;;;;;;;4.90;1.77;;;;;;;-145.23;100.00;58621.06;4988451;28;20238;-54
2022/09/18 07:52:04;;;;;;;5.10;1.30;;;;;;;-145.23;100.00;58621.06;4999314;28;20237;-53
2022/09/18 07:54:31;;;;;;;3.23;1.37;;;;;;;-145.23;100.00;58621.06;4990576;28;20238;-53
2022/09/18 07:56:58;;;;;;;3.67;1.70;;;;;;;-145.23;100.00;58621.06;5012117;28;20230;-52
2022/09/18 07:59:28;;;;;;;6.50;1.73;;;;;;;-145.23;100.00;58621.06;5015714;28;20230;-54
2022/09/18 08:01:55;;;;;;;5.60;1.93;;;;;;;-145.23;100.00;58621.06;4990364;28;20229;-52
2022/09/18 08:04:22;;;;;;;6.03;1.60;;;;;;;-145.23;100.00;58621.06;5001685;28;20233;-52
2022/09/18 08:06:51;;;;;;;9.63;2.40;;;;;;;-145.23;100.00;58621.06;5004479;28;20222;-53
2022/09/18 08:09:17;;;;;;;3.00;1.37;;;;;;;-145.23;100.00;58621.06;4995841;28;20230;-53
2022/09/18 08:11:44;;;;;;;9.67;2.07;;;;;;;-145.23;100.00;58621.06;5002487;28;20242;-53
2022/09/18 08:14:11;;;;;;;3.13;1.43;;;;;;;-145.23;100.00;58621.06;5015570;28;20658;-53
2022/09/18 08:16:38;;;;;;;3.20;1.23;;;;;;;-145.23;100.00;58621.06;5006905;28;20259;-52
2022/09/18 08:19:05;;;;;;;8.17;1.70;;;;;;;-145.23;100.00;58621.06;4993440;28;20246;-53
2022/09/18 08:21:32;;;;;;;5.57;1.33;;;;;;;-145.23;100.00;58621.06;5004507;28;20229;-53
2022/09/18 08:23:58;;;;;;;3.70;1.47;;;;;;;-145.23;100.00;58621.06;5007667;28;20224;-53
2022/09/18 08:26:25;;;;;;;5.57;2.07;;;;;;;-145.23;100.00;58621.06;5013873;28;20231;-53
2022/09/18 08:28:51;;;;;;;6.35;1.27;;;;;;;-145.23;100.00;58621.06;5006508;28;20742;-53
2022/09/18 08:31:17;;;;;;;5.28;1.90;;;;;;;-145.23;100.00;58621.06;5007729;28;20233;-53
2022/09/18 08:33:45;;;;;;;3.22;1.75;;;;;;;-145.23;100.00;58621.06;4999508;28;20707;-53
2022/09/18 08:36:12;;;;;;;6.15;1.40;;;;;;;-145.23;100.00;58621.06;5000010;28;20249;-53
2022/09/18 08:38:38;;;;;;;3.35;1.38;;;;;;;-145.23;100.00;58621.06;4999124;28;20663;-53
2022/09/18 08:41:12;;;;;;;5.85;1.58;;;;;;;-145.23;100.00;58621.06;5006714;28;20228;-53
2022/09/18 08:43:50;;;;;;;3.13;1.30;;;;;;;-145.23;100.00;58621.06;4998051;28;20699;-52
2022/09/18 08:46:20;;;;;;;4.80;1.60;;;;;;;-145.23;100.00;58621.06;4991344;28;20256;-52
2022/09/18 08:48:55;;;;;;;8.40;1.70;;;;;;;-145.23;100.00;58621.06;4990456;28;20238;-52
2022/09/18 08:51:27;;;;;;;4.57;1.63;;;;;;;-145.23;100.00;58621.06;4988158;28;20232;-52
2022/09/18 08:53:56;;;;;;;5.13;1.77;;;;;;;-145.23;100.00;58621.06;5011795;28;20761;-53
2022/09/18 08:56:27;;;;;;;3.20;2.05;;;;;;;-145.23;100.00;58621.06;4997052;28;20225;-52
2022/09/18 08:58:56;;;;;;;4.10;1.42;;;;;;;-145.23;100.00;58621.06;4998457;28;20237;-54
2022/09/18 09:01:27;;;;;;;4.43;1.38;;;;;;;-145.23;100.00;58621.06;5002797;28;20233;-52
2022/09/18 09:03:59;;;;;;;6.18;1.83;;;;;;;-145.23;100.00;58621.06;5011244;28;20236;-52
2022/09/18 09:06:35;;;;;;;7.57;2.15;;;;;;;-145.23;100.00;58621.06;4989291;28;20702;-52
2022/09/18 09:09:10;;;;;;;7.32;1.73;;;;;;;-145.23;100.00;58621.06;4999226;28;20236;-52
2022/09/18 09:11:44;;;;;;;2.67;1.15;;;;;;;-145.23;100.00;58621.06;5013070;28;20236;-52
2022/09/18 09:14:20;;;;;;;3.08;1.20;;;;;;;-145.23;100.00;58621.06;4996200;28;20236;-52
2022/09/18 09:16:51;;;;;;;4.20;1.27;;;;;;;-145.23;100.00;58621.06;5004635;28;20228;-53
2022/09/18 09:19:26;;;;;;;3.30;1.48;;;;;;;-145.23;100.00;58621.06;4996837;28;20476;-52
2022/09/18 09:22:00;;;;;;;4.63;1.05;;;;;;;-145.23;100.00;58621.06;4995528;28;20288;-52
2022/09/18 09:24:31;;;;;;;1.90;0.85;;;;;;;-145.23;100.00;58621.06;5004867;28;20287;-52
2022/09/18 09:26:59;;;;;;;6.68;1.85;;;;;;;-145.23;100.00;58621.06;5025546;28;20236;-51
2022/09/18 09:29:28;;;;;;;2.72;1.70;;;;;;;-145.23;100.00;58621.06;5000208;28;20766;-52
2022/09/18 09:31:57;;;;;;;7.43;2.03;;;;;;;-145.23;100.00;58621.06;5014016;28;20237;-56
2022/09/18 09:34:29;;;;;;;3.95;1.33;;;;;;;-145.23;100.00;58621.06;5003157;28;20229;-52
2022/09/18 09:36:57;;;;;;;5.93;1.02;;;;;;;-145.23;100.00;58621.06;5022429;28;20244;-52
2022/09/18 09:39:27;;;;;;;6.78;1.58;;;;;;;-145.23;100.00;58621.06;5002148;28;20237;-53
2022/09/18 09:41:55;;;;;;;5.25;1.42;;;;;;;-145.23;100.00;58621.06;4999271;28;20242;-53
2022/09/18 09:44:27;;;;;;;9.07;2.20;;;;;;;-145.23;100.00;58621.06;5000061;28;20320;-54
2022/09/18 09:47:00;;;;;;;3.38;1.15;;;;;;;-145.23;100.00;58621.06;4999833;28;20237;-53
2022/09/18 09:49:29;;;;;;;4.45;1.42;;;;;;;-145.23;100.00;58621.06;4990533;28;20786;-52
2022/09/18 09:52:00;;;;;;;1.60;1.02;;;;;;;-145.23;100.00;58621.06;5005618;28;20578;-52
2022/09/18 09:54:27;;;;;;;3.33;1.08;;;;;;;-145.23;100.00;58621.06;4993659;28;20819;-53
2022/09/18 09:56:58;;;;;;;4.10;1.37;;;;;;;-145.23;100.00;58621.06;4995318;28;20716;-52
2022/09/18 09:59:31;;;;;;;2.73;1.20;;;;;;;-145.23;100.00;58621.06;4998146;28;20229;-52
2022/09/18 10:02:00;;;;;;;6.63;2.47;;;;;;;-145.23;100.00;58621.06;4988390;28;20244;-52
2022/09/18 10:04:34;;;;;;;2.13;1.17;;;;;;;-145.23;100.00;58621.06;4995331;28;20656;-52
2022/09/18 10:07:10;;;;;;;5.78;1.90;;;;;;;-145.23;100.00;58621.06;4998337;28;20320;-52
2022/09/18 10:09:40;;;;;;;4.23;1.33;;;;;;;-145.23;100.00;58621.06;5004558;28;20240;-52
2022/09/18 10:12:16;;;;;;;1.70;1.00;;;;;;;-145.23;100.00;58621.06;5007088;28;20236;-53
2022/09/18 10:14:45;;;;;;;5.33;1.50;;;;;;;-145.23;100.00;58621.06;5006006;28;20232;-53
2022/09/18 10:17:12;;;;;;;3.37;1.50;;;;;;;-145.23;100.00;58621.06;5009448;28;20229;-54
2022/09/18 10:19:43;;;;;;;2.78;1.60;;;;;;;-145.23;100.00;58621.06;5001566;28;20241;-53
2022/09/18 10:22:12;;;;;;;3.38;1.25;;;;;;;-145.23;100.00;58621.06;5000598;28;20221;-52
2022/09/18 10:24:47;;;;;;;5.93;1.25;;;;;;;-145.23;100.00;58621.06;4992442;28;20234;-51
2022/09/18 10:27:15;;;;;;;2.13;1.13;;;;;;;-145.23;100.00;58621.06;4993226;28;20229;-54
2022/09/18 10:29:42;;;;;;;3.38;1.33;;;;;;;-145.23;100.00;58621.06;5004547;28;20667;-52
2022/09/18 10:32:11;;;;;;;4.50;0.80;;;;;;;-145.23;100.00;58621.06;5012397;28;20233;-53
2022/09/18 10:34:42;;;;;;;1.67;0.90;;;;;;;-145.23;100.00;58621.06;5000845;28;20229;-52
2022/09/18 10:37:14;;;;;;;2.97;1.00;;;;;;;-145.23;100.00;58621.06;5006637;28;20237;-52
2022/09/18 10:39:48;;;;;;;5.85;1.02;;;;;;;-145.23;100.00;58621.06;5005780;28;20762;-53
2022/09/18 10:42:17;;;;;;;3.15;1.35;;;;;;;-145.23;100.00;58621.06;5015376;28;20229;-52
2022/09/18 10:44:49;;;;;;;4.20;1.10;;;;;;;-145.23;100.00;58621.06;5005553;28;20759;-53
2022/09/18 10:47:20;;;;;;;1.77;1.23;;;;;;;-145.23;100.00;58621.06;5011563;28;20229;-53
2022/09/18 10:49:52;;;;;;;4.38;1.27;;;;;;;-145.23;100.00;58621.06;4998207;28;20718;-53
2022/09/18 10:52:31;;;;;;;3.80;1.60;;;;;;;-145.23;100.00;58621.06;5007858;28;20225;-53
2022/09/18 10:55:00;;;;;;;1.83;1.25;;;;;;;-145.23;100.00;58621.06;4998363;28;20653;-53
2022/09/18 10:57:28;;;;;;;2.33;0.95;;;;;;;-145.23;100.00;58621.06;4996293;28;20710;-54
2022/09/18 10:59:55;;;;;;;6.30;1.02;;;;;;;-145.23;100.00;58621.06;4997440;28;20248;-53
2022/09/18 11:02:25;;;;;;;4.15;1.45;;;;;;;-145.23;100.00;58621.06;5004776;28;20606;-53
2022/09/18 11:04:53;;;;;;;4.18;1.00;;;;;;;-145.23;100.00;58621.06;4984338;28;20233;-53
2022/09/18 11:07:21;;;;;;;2.78;1.23;;;;;;;-145.23;100.00;58621.06;4994000;28;20230;-53
2022/09/18 11:09:48;;;;;;;1.35;0.93;;;;;;;-145.23;100.00;58621.06;4998923;28;20240;-53
2022/09/18 11:12:16;;;;;;;10.32;1.67;;;;;;;-145.23;100.00;58621.06;5000321;28;20541;-52
2022/09/18 11:14:45;;;;;;;5.70;1.20;;;;;;;-145.23;100.00;58621.06;4999100;28;20233;-53